Time;durP1;ratioP1;P1;durP2;ratioP2;P2;SDS_P1;SDS_P2;PMS_P1;PMS_P2;Temp;Humidity;BMP_temperature;BMP_pressure;BME280_temperature;BME280_humidity;BME280_pressure;Samples;Min_cycle;Max_cycle;Signal;HPM_P1;HPM_P2
2023/02/18 00:01:39;;;;;;;64.70;32.80;;;;;;;0.71;94.71;99199.71;105620;1255;73737;-66
2023/02/18 00:04:08;;;;;;;66.40;35.30;;;;;;;0.71;94.62;99190.38;105640;1252;69529;-65
2023/02/18 00:06:37;;;;;;;71.60;36.70;;;;;;;0.76;94.64;99179.35;105444;1258;73343;-65
2023/02/18 00:09:07;;;;;;;69.10;35.70;;;;;;;0.74;94.90;99174.08;105623;1253;60513;-66
2023/02/18 00:11:37;;;;;;;73.40;35.00;;;;;;;0.69;95.31;99164.70;105679;1252;60404;-67
2023/02/18 00:14:10;;;;;;;64.50;34.80;;;;;;;0.75;95.68;99163.75;105647;1255;74022;-65
2023/02/18 00:16:40;;;;;;;69.50;34.80;;;;;;;0.80;95.61;99149.90;105606;1253;69629;-66
2023/02/18 00:19:18;;;;;;;70.20;35.90;;;;;;;0.78;95.75;99144.52;105655;1253;71487;-67
2023/02/18 00:21:47;;;;;;;65.70;32.50;;;;;;;0.76;95.91;99139.43;105576;1252;60555;-66
2023/02/18 00:24:15;;;;;;;65.20;34.50;;;;;;;0.84;96.01;99132.73;105820;1253;60570;-66
2023/02/18 00:26:44;;;;;;;67.80;34.90;;;;;;;0.88;95.78;99123.00;105784;1255;73360;-69
2023/02/18 00:29:13;;;;;;;70.50;34.20;;;;;;;0.84;96.06;99110.41;105692;1255;72514;-71
2023/02/18 00:31:44;;;;;;;68.80;32.60;;;;;;;0.83;96.00;99104.73;105577;1256;73902;-71
2023/02/18 00:34:13;;;;;;;65.80;34.30;;;;;;;0.88;96.17;99102.69;105837;1253;61351;-70
2023/02/18 00:36:42;;;;;;;66.90;34.30;;;;;;;0.90;96.18;99095.08;105740;1253;60578;-68
2023/02/18 00:39:11;;;;;;;67.70;36.10;;;;;;;0.84;96.59;99084.04;105819;1255;73228;-69
2023/02/18 00:41:41;;;;;;;65.50;33.20;;;;;;;0.82;97.19;99080.54;106674;1257;70029;-73
2023/02/18 00:44:10;;;;;;;69.00;36.30;;;;;;;0.89;97.35;99068.14;107116;1253;72917;-68
2023/02/18 00:46:39;;;;;;;70.90;35.70;;;;;;;0.89;97.23;99059.04;107008;1256;61188;-69
2023/02/18 00:49:08;;;;;;;66.30;34.70;;;;;;;0.86;97.75;99059.50;106905;1253;60593;-69
2023/02/18 00:51:36;;;;;;;62.80;33.10;;;;;;;0.90;97.75;99049.41;106826;1256;73691;-71
2023/02/18 00:54:05;;;;;;;69.20;38.30;;;;;;;0.93;97.87;99041.46;106498;1253;69705;-70
2023/02/18 00:56:33;;;;;;;67.90;35.30;;;;;;;0.91;98.13;99039.01;106505;1255;72930;-69
2023/02/18 00:59:01;;;;;;;69.20;37.00;;;;;;;0.96;98.36;99022.04;106488;1253;61951;-70
2023/02/18 01:01:30;;;;;;;70.60;37.80;;;;;;;1.01;98.32;99012.06;106431;1255;60439;-69
2023/02/18 01:03:59;;;;;;;68.00;36.10;;;;;;;0.96;98.66;99004.05;106179;1253;75098;-68
2023/02/18 01:06:27;;;;;;;64.20;33.70;;;;;;;0.96;98.86;98997.45;106062;1253;69417;-70
2023/02/18 01:08:55;;;;;;;63.70;33.90;;;;;;;1.04;98.90;98989.89;105925;1255;72975;-67
2023/02/18 01:11:23;;;;;;;66.00;35.70;;;;;;;1.09;98.70;98979.52;105515;1253;60346;-68
2023/02/18 01:13:51;;;;;;;67.40;37.60;;;;;;;1.08;98.89;98977.17;105650;1253;61308;-68
2023/02/18 01:16:22;;;;;;;74.00;36.90;;;;;;;1.02;99.17;98967.20;106566;1253;73393;-67
2023/02/18 01:18:52;;;;;;;66.80;36.30;;;;;;;1.04;99.39;98953.91;106382;1255;69606;-67
2023/02/18 01:21:20;;;;;;;67.90;37.60;;;;;;;1.09;99.67;98956.15;106163;1252;71693;-68
2023/02/18 01:23:48;;;;;;;71.60;37.30;;;;;;;1.05;99.86;98942.15;106153;1253;61230;-67
2023/02/18 01:26:16;;;;;;;68.00;34.50;;;;;;;1.03;99.99;98932.39;106319;1252;60504;-68
2023/02/18 01:28:44;;;;;;;67.40;35.40;;;;;;;1.08;99.94;98915.75;106197;1253;72019;-65
2023/02/18 01:31:13;;;;;;;72.60;39.60;;;;;;;1.08;100.00;98912.25;106489;1255;70159;-68
2023/02/18 01:33:44;;;;;;;72.50;36.20;;;;;;;1.03;100.00;98914.61;105857;1256;71510;-67
2023/02/18 01:36:12;;;;;;;62.00;32.40;;;;;;;1.03;100.00;98890.02;105713;1253;60507;-66
2023/02/18 01:38:40;;;;;;;72.50;37.80;;;;;;;1.06;100.00;98885.45;105722;1253;60458;-66
2023/02/18 01:41:09;;;;;;;70.40;35.80;;;;;;;1.06;100.00;98878.12;106128;1256;72710;-69
2023/02/18 01:43:38;;;;;;;69.90;38.60;;;;;;;1.00;100.00;98874.23;106082;1254;71556;-69
2023/02/18 01:46:06;;;;;;;68.00;38.40;;;;;;;1.00;100.00;98857.88;106146;1252;72847;-68
2023/02/18 01:48:41;;;;;;;66.50;36.20;;;;;;;1.00;100.00;98851.55;105942;1253;61867;-66
2023/02/18 01:51:11;;;;;;;67.50;37.50;;;;;;;1.01;100.00;98852.89;106030;1253;60514;-66
2023/02/18 01:53:58;;;;;;;75.00;39.00;;;;;;;0.98;100.00;98842.11;105679;1253;74115;-64
2023/02/18 01:56:54;;;;;;;63.50;32.90;;;;;;;0.93;100.00;98835.90;105506;1254;70886;-66
2023/02/18 01:59:29;;;;;;;68.30;35.70;;;;;;;0.95;100.00;98832.58;105755;1255;72151;-67
2023/02/18 02:01:57;;;;;;;68.60;35.50;;;;;;;0.95;100.00;98831.36;105641;1257;60479;-65
2023/02/18 02:04:26;;;;;;;61.20;33.80;;;;;;;0.96;100.00;98816.33;105729;1254;60509;-68
2023/02/18 02:06:54;;;;;;;63.30;35.10;;;;;;;0.94;100.00;98807.21;105687;1255;74805;-68
2023/02/18 02:09:24;;;;;;;68.10;36.00;;;;;;;0.88;100.00;98804.27;105936;1251;71315;-66
2023/02/18 02:12:13;;;;;;;63.80;35.70;;;;;;;0.86;100.00;98815.73;105938;1251;71396;-66
2023/02/18 02:14:53;;;;;;;65.40;34.40;;;;;;;0.84;100.00;98799.73;105653;1254;60569;-64
2023/02/18 02:17:57;;;;;;;63.70;34.80;;;;;;;0.76;100.00;98792.34;105619;1253;61244;-66
2023/02/18 02:20:53;;;;;;;55.70;30.90;;;;;;;0.75;100.00;98772.57;105760;1256;74819;-68
2023/02/18 02:23:47;;;;;;;58.80;32.40;;;;;;;0.73;100.00;98765.81;105528;1253;70324;-65
2023/02/18 02:26:20;;;;;;;59.30;33.90;;;;;;;0.71;100.00;98757.09;105550;1256;74180;-65
2023/02/18 02:29:23;;;;;;;55.20;30.20;;;;;;;0.62;100.00;98753.30;105517;1253;62170;-66
2023/02/18 02:32:27;;;;;;;54.70;31.60;;;;;;;0.61;100.00;98742.92;105285;1253;60557;-68
2023/02/18 02:35:06;;;;;;;54.80;32.10;;;;;;;0.63;100.00;98731.94;105372;1255;74397;-66
2023/02/18 02:37:52;;;;;;;52.30;29.50;;;;;;;0.57;100.00;98737.83;105580;1256;69569;-69
2023/02/18 02:40:46;;;;;;;53.80;31.20;;;;;;;0.54;100.00;98718.36;105767;1256;72925;-68
2023/02/18 02:43:48;;;;;;;54.50;30.50;;;;;;;0.56;100.00;98715.58;105636;1253;61348;-66
2023/02/18 02:46:22;;;;;;;55.00;32.60;;;;;;;0.56;100.00;98710.77;105649;1256;61324;-68
2023/02/18 02:48:57;;;;;;;;;;;;;;;0.53;100.00;98709.11;105408;1253;73118;-66
2023/02/18 02:51:32;;;;;;;51.30;29.90;;;;;;;0.54;100.00;98705.32;105832;1259;68134;-69
2023/02/18 02:54:12;;;;;;;50.80;28.60;;;;;;;0.51;100.00;98709.08;105647;1255;72654;-67
2023/02/18 02:56:40;;;;;;;51.50;28.80;;;;;;;0.56;100.00;98700.30;105645;1254;60438;-67
2023/02/18 02:59:14;;;;;;;53.40;30.30;;;;;;;0.60;100.00;98691.07;105787;1251;61539;-68
2023/02/18 03:01:48;;;;;;;50.40;29.10;;;;;;;0.61;100.00;98679.66;105486;1257;71469;-70
2023/02/18 03:04:40;;;;;;;45.70;27.10;;;;;;;0.58;100.00;98680.98;105548;1256;70938;-71
2023/02/18 03:07:40;;;;;;;48.30;28.80;;;;;;;0.62;100.00;98675.73;105728;1254;72943;-71
2023/02/18 03:10:25;;;;;;;51.30;30.50;;;;;;;0.62;100.00;98663.23;105582;1255;60624;-68
2023/02/18 03:13:14;;;;;;;50.40;29.40;;;;;;;0.63;100.00;98660.84;105853;1253;60502;-70
2023/02/18 03:15:51;;;;;;;54.30;32.70;;;;;;;0.67;100.00;98652.12;105709;1255;74141;-70
2023/02/18 03:18:37;;;;;;;54.50;29.30;;;;;;;0.66;100.00;98657.64;105463;1253;69730;-68
2023/02/18 03:21:09;;;;;;;47.70;27.50;;;;;;;0.71;100.00;98649.02;105504;1255;72296;-68
2023/02/18 03:23:48;;;;;;;52.20;33.30;;;;;;;0.77;100.00;98647.46;105620;1253;62085;-68
2023/02/18 03:26:19;;;;;;;54.40;28.70;;;;;;;0.78;100.00;98649.48;105973;1253;60469;-68
2023/02/18 03:28:48;;;;;;;50.00;29.50;;;;;;;0.74;100.00;98630.62;105654;1258;75151;-69
2023/02/18 03:31:20;;;;;;;50.50;30.20;;;;;;;0.79;100.00;98632.95;105676;1253;70994;-67
2023/02/18 03:33:54;;;;;;;51.00;30.70;;;;;;;0.86;100.00;98622.15;105523;1253;72050;-71
2023/02/18 03:36:22;;;;;;;55.40;31.60;;;;;;;0.82;100.00;98619.11;105935;1258;60514;-70
2023/02/18 03:39:00;;;;;;;56.50;32.10;;;;;;;0.81;100.00;98618.22;105781;1254;61507;-73
2023/02/18 03:41:29;;;;;;;53.70;31.90;;;;;;;0.86;100.00;98613.04;105533;1258;73810;-70
2023/02/18 03:44:00;;;;;;;53.70;31.60;;;;;;;0.93;100.00;98587.16;105783;1259;69359;-68
2023/02/18 03:46:29;;;;;;;52.30;31.70;;;;;;;0.96;100.00;98590.16;105486;1253;73713;-68
2023/02/18 03:48:58;;;;;;;55.40;31.10;;;;;;;0.95;100.00;98578.58;105979;1253;61261;-68
2023/02/18 03:51:26;;;;;;;51.50;31.00;;;;;;;0.99;100.00;98572.67;105673;1253;60543;-69
2023/02/18 03:53:54;;;;;;;50.80;31.20;;;;;;;1.03;100.00;98583.30;105685;1253;71696;-68
2023/02/18 03:56:22;;;;;;;52.80;29.80;;;;;;;1.00;100.00;98560.41;105465;1258;68760;-72
2023/02/18 03:58:50;;;;;;;53.50;30.80;;;;;;;1.01;100.00;98558.23;105827;1253;71532;-68
2023/02/18 04:01:18;;;;;;;52.60;30.10;;;;;;;1.05;100.00;98539.56;105442;1253;309757;-70
2023/02/18 04:05:59;;;;;;;54.90;30.50;;;;;;;1.10;100.00;98542.22;102402;1296;602533;-69
2023/02/18 04:08:26;;;;;;;53.40;30.40;;;;;;;1.10;100.00;98526.19;104667;1268;59347;-70
2023/02/18 04:10:52;;;;;;;47.20;29.80;;;;;;;1.15;100.00;98538.64;104661;1271;59353;-70
2023/02/18 04:13:20;;;;;;;46.30;28.30;;;;;;;1.17;100.00;98521.52;105331;1261;73410;-71
2023/02/18 04:15:50;;;;;;;52.50;30.50;;;;;;;1.14;100.00;98523.84;105020;1263;70415;-69
2023/02/18 04:18:18;;;;;;;47.00;29.20;;;;;;;1.16;100.00;98507.98;105107;1254;190892;-70
2023/02/18 04:20:45;;;;;;;44.20;26.80;;;;;;;1.18;100.00;98501.08;105458;1255;62418;-70
2023/02/18 04:23:12;;;;;;;45.80;27.20;;;;;;;1.18;100.00;98496.02;105341;1254;61528;-71
2023/02/18 04:25:39;;;;;;;45.20;28.20;;;;;;;1.19;100.00;98495.76;105578;1259;73401;-69
2023/02/18 04:28:10;;;;;;;45.30;26.90;;;;;;;1.21;100.00;98488.95;105554;1254;71451;-69
2023/02/18 04:30:38;;;;;;;42.30;25.00;;;;;;;1.22;100.00;98475.76;105867;1258;71700;-69
2023/02/18 04:33:05;;;;;;;43.20;26.20;;;;;;;1.24;100.00;98482.57;105615;1267;60788;-69
2023/02/18 04:35:31;;;;;;;42.50;25.10;;;;;;;1.26;100.00;98477.88;105348;1254;60525;-70
2023/02/18 04:37:58;;;;;;;45.60;25.30;;;;;;;1.28;100.00;98461.77;105543;1260;72750;-68
2023/02/18 04:40:28;;;;;;;43.00;26.30;;;;;;;1.30;100.00;98458.62;105536;1260;70356;-68
2023/02/18 04:42:58;;;;;;;44.80;27.30;;;;;;;1.33;100.00;98459.02;105597;1259;73365;-70
2023/02/18 04:45:25;;;;;;;40.80;24.30;;;;;;;1.34;100.00;98450.94;105558;1254;59616;-69
2023/02/18 04:47:52;;;;;;;40.90;24.00;;;;;;;1.35;100.00;98445.72;105490;1257;60581;-68
2023/02/18 04:50:20;;;;;;;36.90;23.60;;;;;;;1.41;100.00;98440.50;105363;1258;74075;-69
2023/02/18 04:52:47;;;;;;;39.20;23.40;;;;;;;1.44;100.00;98442.66;105575;1254;70127;-68
2023/02/18 04:55:14;;;;;;;38.00;23.30;;;;;;;1.47;100.00;98441.20;105451;1257;72353;-68
2023/02/18 04:57:41;;;;;;;40.40;24.80;;;;;;;1.52;100.00;98433.27;105377;1253;61620;-70
2023/02/18 05:00:08;;;;;;;36.10;23.90;;;;;;;1.54;100.00;98437.95;105689;1251;60090;-68
2023/02/18 05:02:36;;;;;;;42.20;23.10;;;;;;;1.51;100.00;98427.03;105761;1251;72062;-68
2023/02/18 05:05:06;;;;;;;39.30;25.20;;;;;;;1.56;100.00;98419.91;105642;1251;69778;-69
2023/02/18 05:07:33;;;;;;;36.20;23.10;;;;;;;1.63;100.00;98409.05;105575;1255;72914;-70
2023/02/18 05:10:00;;;;;;;37.90;22.60;;;;;;;1.61;100.00;98406.56;105713;1256;61587;-67
2023/02/18 05:12:27;;;;;;;37.10;22.10;;;;;;;1.64;100.00;98397.73;105684;1257;60354;-70
2023/02/18 05:14:54;;;;;;;37.20;21.30;;;;;;;1.71;100.00;98393.00;105682;1252;73247;-68
2023/02/18 05:17:21;;;;;;;33.30;20.50;;;;;;;1.75;100.00;98397.35;105703;1251;71523;-68
2023/02/18 05:19:48;;;;;;;35.80;21.90;;;;;;;1.80;100.00;98384.92;105753;1256;71818;-66
2023/02/18 05:22:19;;;;;;;31.80;21.80;;;;;;;1.85;100.00;98363.84;105743;1256;61140;-68
2023/02/18 05:24:46;;;;;;;31.20;19.90;;;;;;;1.86;100.00;98370.81;105779;1257;60872;-69
2023/02/18 05:27:13;;;;;;;34.90;22.90;;;;;;;1.88;100.00;98383.80;105572;1258;73058;-68
2023/02/18 05:29:41;;;;;;;34.00;21.50;;;;;;;1.92;100.00;98381.62;105850;1258;70098;-68
2023/02/18 05:32:07;;;;;;;34.80;23.40;;;;;;;1.97;100.00;98372.13;105840;1251;72936;-72
2023/02/18 05:34:36;;;;;;;38.90;22.70;;;;;;;1.99;100.00;98368.45;105859;1251;61577;-68
2023/02/18 05:37:02;;;;;;;34.30;22.70;;;;;;;1.98;100.00;98362.93;105676;1255;60208;-69
2023/02/18 05:39:29;;;;;;;35.20;21.60;;;;;;;2.06;100.00;98355.31;105339;1256;72240;-69
2023/02/18 05:41:56;;;;;;;37.80;22.80;;;;;;;2.10;100.00;98352.48;105931;1251;71497;-66
2023/02/18 05:44:29;;;;;;;34.70;22.90;;;;;;;2.14;100.00;98351.75;105607;1252;72927;-67
2023/02/18 05:47:00;;;;;;;40.20;24.60;;;;;;;2.15;100.00;98351.34;105525;1254;62930;-69
2023/02/18 05:49:27;;;;;;;38.00;22.80;;;;;;;2.20;100.00;98346.65;105909;1256;60450;-68
2023/02/18 05:51:54;;;;;;;38.20;21.40;;;;;;;2.26;100.00;98344.65;105730;1251;73164;-70
2023/02/18 05:54:21;;;;;;;36.50;22.30;;;;;;;2.33;100.00;98338.02;105916;1254;68739;-70
2023/02/18 05:56:48;;;;;;;29.10;19.80;;;;;;;2.41;100.00;98337.83;105792;1257;72524;-67
2023/02/18 05:59:15;;;;;;;31.80;19.10;;;;;;;2.49;100.00;98332.27;105643;1251;62228;-67
2023/02/18 06:01:42;;;;;;;28.00;17.70;;;;;;;2.62;100.00;98313.59;105813;1254;60256;-68
2023/02/18 06:04:09;;;;;;;29.60;18.00;;;;;;;2.72;100.00;98321.61;105643;1257;73989;-67
2023/02/18 06:06:37;;;;;;;30.10;17.80;;;;;;;2.83;100.00;98316.89;105743;1264;70529;-70
2023/02/18 06:09:05;;;;;;;28.90;17.00;;;;;;;2.90;100.00;98330.67;105704;1251;72764;-66
2023/02/18 06:11:32;;;;;;;25.70;16.00;;;;;;;2.98;100.00;98325.59;105817;1251;61885;-65
2023/02/18 06:13:58;;;;;;;25.10;14.70;;;;;;;3.06;100.00;98325.02;105652;1253;59810;-69
2023/02/18 06:16:25;;;;;;;23.90;14.40;;;;;;;3.16;100.00;98318.77;105600;1257;73204;-68
2023/02/18 06:18:53;;;;;;;21.00;14.10;;;;;;;3.24;100.00;98311.85;105994;1254;70553;-69
2023/02/18 06:21:21;;;;;;;21.70;14.80;;;;;;;3.31;100.00;98309.03;105735;1254;71480;-68
2023/02/18 06:23:48;;;;;;;20.90;14.60;;;;;;;3.38;100.00;98309.36;105726;1251;62609;-66
2023/02/18 06:26:15;;;;;;;20.30;13.70;;;;;;;3.46;100.00;98311.92;105633;1252;60606;-66
2023/02/18 06:28:42;;;;;;;19.20;13.30;;;;;;;3.56;100.00;98311.08;105723;1257;72905;-67
2023/02/18 06:31:09;;;;;;;20.90;12.60;;;;;;;3.67;100.00;98308.33;105546;1251;71006;-65
2023/02/18 06:33:35;;;;;;;18.50;13.10;;;;;;;3.75;100.00;98312.88;105685;1254;72735;-70
2023/02/18 06:36:06;;;;;;;18.40;12.50;;;;;;;3.83;100.00;98314.73;105931;1251;62253;-68
2023/02/18 06:38:34;;;;;;;16.30;12.00;;;;;;;3.90;100.00;98312.89;106001;1256;60443;-70
2023/02/18 06:41:00;;;;;;;14.80;11.00;;;;;;;3.98;100.00;98314.46;105882;1254;71959;-67
2023/02/18 06:43:27;;;;;;;15.10;11.80;;;;;;;4.05;100.00;98308.92;105631;1254;71320;-70
2023/02/18 06:45:54;;;;;;;15.10;11.70;;;;;;;4.11;100.00;98311.45;105914;1254;59707;-70
2023/02/18 06:48:21;;;;;;;17.80;11.90;;;;;;;4.19;100.00;98306.48;106305;1254;61537;-70
2023/02/18 06:50:48;;;;;;;14.60;11.40;;;;;;;4.25;100.00;98300.70;107557;1251;59956;-68
2023/02/18 06:53:18;;;;;;;15.00;10.50;;;;;;;4.33;100.00;98300.06;106121;1257;72970;-70
2023/02/18 06:55:46;;;;;;;15.10;11.10;;;;;;;4.42;100.00;98300.61;105800;1255;68905;-67
2023/02/18 06:58:14;;;;;;;12.80;10.30;;;;;;;4.50;100.00;98302.08;107630;1251;71777;-67
2023/02/18 07:00:57;;;;;;;17.10;11.50;;;;;;;4.56;100.00;98295.28;107588;1256;62425;-69
2023/02/18 07:03:25;;;;;;;11.80;9.60;;;;;;;4.58;100.00;98302.99;106810;1253;59866;-70
2023/02/18 07:05:53;;;;;;;11.70;10.00;;;;;;;4.63;100.00;98296.15;107042;1251;72977;-70
2023/02/18 07:08:20;;;;;;;15.60;11.90;;;;;;;4.66;100.00;98303.33;107411;1251;70536;-69
2023/02/18 07:10:47;;;;;;;13.70;10.20;;;;;;;4.66;100.00;98304.52;107342;1256;73545;-72
2023/02/18 07:13:14;;;;;;;10.80;8.50;;;;;;;4.74;100.00;98313.91;107729;1251;60910;-70
2023/02/18 07:15:41;;;;;;;11.40;9.10;;;;;;;4.80;100.00;98318.83;107927;1251;59506;-69
2023/02/18 07:18:10;;;;;;;12.00;8.30;;;;;;;4.85;100.00;98318.98;107556;1253;72912;-70
2023/02/18 07:20:38;;;;;;;11.70;8.80;;;;;;;4.88;100.00;98322.71;107645;1254;69379;-69
2023/02/18 07:23:05;;;;;;;13.90;8.50;;;;;;;4.96;100.00;98336.67;107538;1253;72033;-69
2023/02/18 07:25:33;;;;;;;11.60;8.30;;;;;;;5.03;100.00;98343.27;108364;1254;60657;-69
2023/02/18 07:28:00;;;;;;;9.70;7.30;;;;;;;5.07;100.00;98342.57;108772;1251;60310;-69
2023/02/18 07:30:28;;;;;;;9.30;7.00;;;;;;;5.16;100.00;98345.28;109020;1251;71763;-67
2023/02/18 07:32:55;;;;;;;9.00;6.30;;;;;;;5.28;100.00;98344.48;108998;1252;68721;-69
2023/02/18 07:35:22;;;;;;;7.50;5.60;;;;;;;5.35;100.00;98330.34;108228;1251;72459;-70
2023/02/18 07:37:49;;;;;;;6.50;4.30;;;;;;;5.44;100.00;98332.96;106380;1251;61647;-71
2023/02/18 07:40:19;;;;;;;6.00;3.70;;;;;;;5.49;100.00;98332.85;105980;1252;60967;-68
2023/02/18 07:42:46;;;;;;;9.00;4.10;;;;;;;5.46;100.00;98340.83;105942;1251;74490;-71
2023/02/18 07:45:16;;;;;;;6.90;3.80;;;;;;;5.45;100.00;98339.20;105700;1251;71484;-71
2023/02/18 07:47:44;;;;;;;7.20;3.20;;;;;;;5.48;100.00;98343.21;105869;1251;74748;-69
2023/02/18 07:50:13;;;;;;;7.70;3.30;;;;;;;5.44;98.83;98350.84;106011;1256;59914;-71
2023/02/18 07:52:41;;;;;;;8.40;3.60;;;;;;;5.37;99.00;98352.19;105989;1256;59695;-70
2023/02/18 07:55:09;;;;;;;6.00;3.20;;;;;;;5.36;98.31;98343.34;106072;1251;73197;-73
2023/02/18 07:57:56;;;;;;;5.50;2.60;;;;;;;5.33;97.44;98342.90;105967;1251;70428;-72
2023/02/18 08:00:23;;;;;;;4.50;2.60;;;;;;;5.28;97.56;98337.25;105847;1251;72325;-74
2023/02/18 08:02:49;;;;;;;4.70;2.50;;;;;;;5.31;96.38;98328.20;106133;1251;61489;-73
2023/02/18 08:05:18;;;;;;;7.50;2.70;;;;;;;5.32;96.16;98322.43;105924;1251;60888;-72
2023/02/18 08:07:45;;;;;;;4.40;2.50;;;;;;;5.37;95.90;98317.69;105839;1256;74195;-75
2023/02/18 08:10:12;;;;;;;8.30;2.50;;;;;;;5.35;95.26;98316.40;105883;1251;70601;-76
2023/02/18 08:12:40;;;;;;;4.40;2.00;;;;;;;5.34;95.15;98311.37;105886;1251;73647;-70
2023/02/18 08:15:07;;;;;;;5.70;2.60;;;;;;;5.40;95.03;98308.58;105630;1254;60515;-70
2023/02/18 08:17:39;;;;;;;6.20;2.80;;;;;;;5.44;95.06;98305.35;105867;1253;61936;-69
2023/02/18 08:20:06;;;;;;;8.70;2.70;;;;;;;5.56;94.88;98305.63;105775;1256;72730;-70
2023/02/18 08:22:33;;;;;;;4.20;2.40;;;;;;;5.79;94.77;98307.60;105559;1251;71346;-67
2023/02/18 08:25:00;;;;;;;6.50;3.10;;;;;;;5.99;94.46;98305.73;105712;1253;73576;-72
2023/02/18 08:27:26;;;;;;;8.20;3.30;;;;;;;6.16;93.77;98309.86;105894;1255;60808;-68
2023/02/18 08:29:54;;;;;;;5.40;3.20;;;;;;;6.26;92.55;98309.49;105951;1256;62443;-68
2023/02/18 08:32:21;;;;;;;6.20;2.70;;;;;;;6.32;91.56;98317.48;105692;1256;73418;-67
2023/02/18 08:34:48;;;;;;;11.50;2.80;;;;;;;6.39;91.23;98319.72;105884;1251;71403;-67
2023/02/18 08:37:15;;;;;;;5.10;2.60;;;;;;;6.37;90.85;98324.05;105634;1253;72123;-67
2023/02/18 08:39:42;;;;;;;6.60;3.10;;;;;;;6.36;90.62;98324.72;106031;1254;62190;-70
2023/02/18 08:42:10;;;;;;;4.80;2.60;;;;;;;6.39;90.11;98328.64;107066;1254;60423;-72
2023/02/18 08:44:37;;;;;;;7.70;3.70;;;;;;;6.38;89.44;98328.91;107367;1256;73649;-74
2023/02/18 08:47:03;;;;;;;6.20;3.00;;;;;;;6.32;89.36;98329.75;106303;1251;69875;-72
2023/02/18 08:49:54;;;;;;;8.00;3.50;;;;;;;6.36;89.29;98329.48;105893;1254;72982;-74
2023/02/18 08:52:21;;;;;;;6.70;3.90;;;;;;;6.47;90.25;98328.56;105866;1254;63420;-73
2023/02/18 08:54:47;;;;;;;5.20;3.00;;;;;;;6.56;89.26;98328.76;105841;1251;60615;-74
2023/02/18 08:57:14;;;;;;;6.10;3.10;;;;;;;6.54;88.92;98331.19;105788;1254;75077;-76
2023/02/18 08:59:41;;;;;;;8.90;2.80;;;;;;;6.58;88.33;98331.38;106007;1252;70569;-73
2023/02/18 09:02:13;;;;;;;5.50;2.70;;;;;;;6.63;87.86;98333.65;105994;1253;72484;-74
2023/02/18 09:04:39;;;;;;;5.00;2.80;;;;;;;6.61;87.47;98333.18;105713;1253;61416;-72
2023/02/18 09:07:07;;;;;;;7.00;3.00;;;;;;;6.58;87.45;98333.36;105759;1251;61127;-74
2023/02/18 09:09:34;;;;;;;7.30;3.10;;;;;;;6.63;87.35;98336.13;105874;1256;75041;-69
2023/02/18 09:12:06;;;;;;;8.20;3.50;;;;;;;6.61;86.06;98335.41;105404;1254;70618;-70
2023/02/18 09:14:33;;;;;;;8.00;3.20;;;;;;;6.55;86.44;98332.59;105559;1257;72730;-75
2023/02/18 09:16:59;;;;;;;4.80;2.70;;;;;;;6.46;86.11;98331.11;105979;1251;61309;-77
2023/02/18 09:19:26;;;;;;;5.60;3.10;;;;;;;6.49;85.44;98329.70;105935;1256;60737;-72
2023/02/18 09:21:53;;;;;;;9.00;3.00;;;;;;;6.53;84.82;98331.43;105652;1256;74065;-66
2023/02/18 09:24:20;;;;;;;6.50;3.30;;;;;;;6.47;85.53;98330.90;105578;1257;69648;-70
2023/02/18 09:26:47;;;;;;;5.20;2.80;;;;;;;6.43;86.34;98332.05;105750;1252;73914;-69
2023/02/18 09:29:18;;;;;;;5.70;3.40;;;;;;;6.46;86.34;98329.80;105789;1253;60354;-67
2023/02/18 09:31:46;;;;;;;7.20;3.60;;;;;;;6.38;86.01;98337.06;105826;1251;61207;-68
2023/02/18 09:34:12;;;;;;;5.90;2.80;;;;;;;6.28;86.74;98329.27;105854;1251;73860;-71
2023/02/18 09:36:39;;;;;;;6.80;3.10;;;;;;;6.31;85.14;98342.72;105687;1251;71191;-68
2023/02/18 09:39:06;;;;;;;9.30;3.10;;;;;;;6.32;85.86;98340.34;105752;1256;73851;-72
2023/02/18 09:41:43;;;;;;;7.20;2.80;;;;;;;6.39;85.89;98341.33;105890;1251;63226;-68
2023/02/18 09:44:17;;;;;;;5.60;2.20;;;;;;;6.45;85.74;98339.89;105586;1258;62182;-69
2023/02/18 09:47:12;;;;;;;8.90;3.30;;;;;;;6.53;85.89;98339.89;105562;1257;74111;-71
2023/02/18 09:49:40;;;;;;;5.00;2.30;;;;;;;6.65;85.65;98338.69;105524;1256;69469;-71
2023/02/18 09:52:24;;;;;;;10.50;2.90;;;;;;;6.70;84.64;98335.40;105904;1254;73330;-72
2023/02/18 09:54:51;;;;;;;6.30;2.90;;;;;;;6.70;84.32;98339.46;105517;1254;60629;-73
2023/02/18 09:57:37;;;;;;;9.20;2.90;;;;;;;6.69;82.97;98338.39;105475;1256;61157;-70
2023/02/18 10:00:25;;;;;;;8.00;3.10;;;;;;;6.71;82.66;98335.34;105721;1255;74936;-71
2023/02/18 10:03:14;;;;;;;6.10;2.60;;;;;;;6.65;81.81;98332.35;106045;1256;72558;-68
2023/02/18 10:06:23;;;;;;;7.30;2.50;;;;;;;6.64;81.29;98332.16;105595;1256;71828;-69
2023/02/18 10:08:50;;;;;;;8.40;3.50;;;;;;;6.62;80.52;98329.90;105565;1254;61434;-69
2023/02/18 10:11:30;;;;;;;7.60;2.70;;;;;;;6.54;79.80;98337.72;105525;1254;61673;-65
2023/02/18 10:13:59;;;;;;;5.40;2.30;;;;;;;6.48;79.65;98332.02;105603;1256;73843;-65
2023/02/18 10:16:26;;;;;;;4.30;2.70;;;;;;;6.53;79.18;98333.41;105740;1256;69420;-65
2023/02/18 10:18:56;;;;;;;7.10;2.90;;;;;;;6.55;79.47;98331.97;105633;1255;71484;-65
2023/02/18 10:21:27;;;;;;;7.70;2.30;;;;;;;6.49;80.17;98328.75;105820;1254;61009;-68
2023/02/18 10:24:02;;;;;;;6.20;2.30;;;;;;;6.47;79.94;98328.36;105600;1253;61415;-69
2023/02/18 10:26:36;;;;;;;7.30;2.70;;;;;;;6.50;78.92;98324.36;105747;1256;74942;-69
2023/02/18 10:29:04;;;;;;;8.00;3.40;;;;;;;6.45;78.62;98331.65;105755;1251;72274;-71
2023/02/18 10:31:35;;;;;;;7.10;2.20;;;;;;;6.43;78.90;98325.77;106147;1255;72823;-71
2023/02/18 10:34:19;;;;;;;5.60;2.40;;;;;;;6.52;77.91;98331.00;105885;1251;62919;-69
2023/02/18 10:36:54;;;;;;;7.50;2.70;;;;;;;6.59;77.33;98331.45;105734;1253;60437;-72
2023/02/18 10:39:33;;;;;;;5.00;2.50;;;;;;;6.59;77.01;98332.99;105896;1253;73840;-71
2023/02/18 10:42:13;;;;;;;5.90;2.70;;;;;;;6.67;76.73;98327.92;107222;1255;69148;-75
2023/02/18 10:45:09;;;;;;;5.20;2.30;;;;;;;6.75;76.71;98337.19;106647;1253;73279;-77
2023/02/18 10:47:38;;;;;;;5.00;2.40;;;;;;;6.69;76.98;98335.36;105982;1253;60472;-72
2023/02/18 10:50:08;;;;;;;6.70;2.40;;;;;;;6.71;76.65;98339.59;105985;1253;60540;-68
2023/02/18 10:52:44;;;;;;;8.30;3.10;;;;;;;6.76;76.66;98333.42;105990;1253;73623;-70
2023/02/18 10:55:14;;;;;;;8.20;2.70;;;;;;;6.74;76.30;98334.45;105769;1250;71326;-70
2023/02/18 10:57:49;;;;;;;5.40;2.40;;;;;;;6.80;75.96;98336.19;105660;1251;72154;-70
2023/02/18 11:00:24;;;;;;;6.30;2.20;;;;;;;6.88;74.94;98329.28;105775;1251;61236;-69
2023/02/18 11:03:21;;;;;;;6.00;2.30;;;;;;;6.86;74.20;98323.89;105782;1256;60254;-70
2023/02/18 11:05:56;;;;;;;5.90;2.30;;;;;;;6.81;74.17;98325.68;105948;1257;74066;-70
2023/02/18 11:08:30;;;;;;;5.40;2.10;;;;;;;6.88;74.50;98325.49;105683;1253;70608;-72
2023/02/18 11:10:57;;;;;;;7.40;2.30;;;;;;;6.98;74.53;98319.35;105758;1254;72218;-71
2023/02/18 11:13:29;;;;;;;5.40;2.20;;;;;;;6.95;73.47;98315.99;105582;1259;60902;-70
2023/02/18 11:16:01;;;;;;;9.00;2.60;;;;;;;6.88;72.74;98311.90;106114;1252;60402;-69
2023/02/18 11:18:35;;;;;;;4.70;2.00;;;;;;;6.83;73.17;98314.91;105790;1251;72011;-70
2023/02/18 11:21:04;;;;;;;4.60;2.60;;;;;;;6.93;73.11;98316.44;105776;1256;70971;-70
2023/02/18 11:23:31;;;;;;;6.00;2.10;;;;;;;7.02;71.67;98313.61;105698;1253;72130;-69
2023/02/18 11:26:05;;;;;;;8.80;2.90;;;;;;;6.99;69.80;98310.98;105712;1250;60595;-69
2023/02/18 11:28:36;;;;;;;9.80;2.50;;;;;;;6.92;68.91;98308.98;105929;1253;61670;-70
2023/02/18 11:31:04;;;;;;;7.10;2.30;;;;;;;6.87;68.98;98316.51;105882;1254;75003;-68
2023/02/18 11:33:41;;;;;;;5.60;2.10;;;;;;;6.90;68.68;98311.81;105831;1251;71305;-68
2023/02/18 11:36:17;;;;;;;6.10;1.90;;;;;;;7.00;68.17;98319.84;106049;1254;73041;-69
2023/02/18 11:38:53;;;;;;;5.10;2.20;;;;;;;7.13;68.21;98321.65;106191;1250;61085;-68
2023/02/18 11:41:28;;;;;;;9.90;3.20;;;;;;;7.31;67.74;98328.94;106053;1253;60482;-68